sensor_id;sensor_type;location;lat;lon;timestamp;pressure;altitude;pressure_sealevel;temperature;humidity
7614;BME280;3848;42.016;23.098;2023-06-19T00:00:15;97115.09;;;17.14;100.00
7614;BME280;3848;42.016;23.098;2023-06-19T00:02:43;97110.78;;;17.15;100.00
7614;BME280;3848;42.016;23.098;2023-06-19T00:05:11;97116.81;;;17.14;100.00
7614;BME280;3848;42.016;23.098;2023-06-19T00:07:39;97112.75;;;17.06;100.00
7614;BME280;3848;42.016;23.098;2023-06-19T00:10:06;97115.19;;;17.11;100.00
7614;BME280;3848;42.016;23.098;2023-06-19T00:12:33;97116.03;;;17.12;100.00
7614;BME280;3848;42.016;23.098;2023-06-19T00:15:00;97068.97;;;16.86;100.00
7614;BME280;3848;42.016;23.098;2023-06-19T00:17:29;97115.25;;;17.10;100.00
7614;BME280;3848;42.016;23.098;2023-06-19T00:19:55;97102.66;;;17.02;100.00
7614;BME280;3848;42.016;23.098;2023-06-19T00:22:22;97093.59;;;16.92;100.00
7614;BME280;3848;42.016;23.098;2023-06-19T00:24:49;97107.13;;;16.97;100.00
7614;BME280;3848;42.016;23.098;2023-06-19T00:27:17;97109.72;;;16.95;100.00
7614;BME280;3848;42.016;23.098;2023-06-19T00:29:44;97101.31;;;16.92;100.00
7614;BME280;3848;42.016;23.098;2023-06-19T00:32:10;97101.34;;;16.90;100.00
7614;BME280;3848;42.016;23.098;2023-06-19T00:34:38;97099.69;;;16.89;100.00
7614;BME280;3848;42.016;23.098;2023-06-19T00:37:08;97097.13;;;16.89;100.00
7614;BME280;3848;42.016;23.098;2023-06-19T00:39:38;97102.25;;;16.89;100.00
7614;BME280;3848;42.016;23.098;2023-06-19T00:42:05;97097.31;;;16.83;100.00
7614;BME280;3848;42.016;23.098;2023-06-19T00:44:32;97101.31;;;16.92;100.00
7614;BME280;3848;42.016;23.098;2023-06-19T00:47:01;97106.59;;;16.87;100.00
7614;BME280;3848;42.016;23.098;2023-06-19T00:49:29;97099.97;;;16.80;100.00
7614;BME280;3848;42.016;23.098;2023-06-19T00:51:58;97109.44;;;16.78;100.00
7614;BME280;3848;42.016;23.098;2023-06-19T00:54:25;97101.81;;;16.76;100.00
7614;BME280;3848;42.016;23.098;2023-06-19T00:56:52;97096.03;;;16.70;100.00
7614;BME280;3848;42.016;23.098;2023-06-19T00:59:19;97090.97;;;16.68;100.00
7614;BME280;3848;42.016;23.098;2023-06-19T01:01:47;97090.03;;;16.71;100.00
7614;BME280;3848;42.016;23.098;2023-06-19T01:04:14;97101.84;;;16.75;100.00
7614;BME280;3848;42.016;23.098;2023-06-19T01:06:53;97083.31;;;16.67;100.00
7614;BME280;3848;42.016;23.098;2023-06-19T01:09:28;97091.75;;;16.70;100.00
7614;BME280;3848;42.016;23.098;2023-06-19T01:12:01;97098.50;;;16.73;100.00
7614;BME280;3848;42.016;23.098;2023-06-19T01:14:35;97086.56;;;16.72;100.00
7614;BME280;3848;42.016;23.098;2023-06-19T01:17:05;97084.19;;;16.64;100.00
7614;BME280;3848;42.016;23.098;2023-06-19T01:19:32;97087.63;;;16.66;100.00
7614;BME280;3848;42.016;23.098;2023-06-19T01:22:03;97087.66;;;16.63;100.00
7614;BME280;3848;42.016;23.098;2023-06-19T01:24:30;97073.38;;;16.56;100.00
7614;BME280;3848;42.016;23.098;2023-06-19T01:26:57;97085.25;;;16.59;100.00
7614;BME280;3848;42.016;23.098;2023-06-19T01:29:24;97089.53;;;16.58;100.00
7614;BME280;3848;42.016;23.098;2023-06-19T01:31:55;97087.75;;;16.60;100.00
7614;BME280;3848;42.016;23.098;2023-06-19T01:34:25;97092.31;;;16.52;100.00
7614;BME280;3848;42.016;23.098;2023-06-19T01:36:54;97091.53;;;16.50;100.00
7614;BME280;3848;42.016;23.098;2023-06-19T01:39:24;97095.88;;;16.48;100.00
7614;BME280;3848;42.016;23.098;2023-06-19T01:41:52;97098.63;;;16.42;100.00
7614;BME280;3848;42.016;23.098;2023-06-19T01:44:20;97106.34;;;16.40;100.00
7614;BME280;3848;42.016;23.098;2023-06-19T01:46:48;97095.63;;;16.29;100.00
7614;BME280;3848;42.016;23.098;2023-06-19T01:49:15;97087.09;;;16.29;100.00
7614;BME280;3848;42.016;23.098;2023-06-19T01:51:42;97090.38;;;16.32;100.00
7614;BME280;3848;42.016;23.098;2023-06-19T01:54:09;97099.75;;;16.33;100.00
7614;BME280;3848;42.016;23.098;2023-06-19T01:56:37;97104.78;;;16.36;100.00
7614;BME280;3848;42.016;23.098;2023-06-19T01:59:04;97104.03;;;16.33;100.00
7614;BME280;3848;42.016;23.098;2023-06-19T02:01:31;97112.72;;;16.29;100.00
7614;BME280;3848;42.016;23.098;2023-06-19T02:03:58;97108.44;;;16.29;100.00
7614;BME280;3848;42.016;23.098;2023-06-19T02:06:24;97102.47;;;16.29;100.00
7614;BME280;3848;42.016;23.098;2023-06-19T02:08:51;97113.72;;;16.23;100.00
7614;BME280;3848;42.016;23.098;2023-06-19T02:11:18;97112.06;;;16.22;100.00
7614;BME280;3848;42.016;23.098;2023-06-19T02:13:46;97120.69;;;16.20;100.00
7614;BME280;3848;42.016;23.098;2023-06-19T02:16:13;97120.78;;;16.16;100.00
7614;BME280;3848;42.016;23.098;2023-06-19T02:18:40;97127.84;;;16.10;100.00
7614;BME280;3848;42.016;23.098;2023-06-19T02:21:07;97127.72;;;16.13;100.00
7614;BME280;3848;42.016;23.098;2023-06-19T02:23:34;97127.63;;;16.16;100.00
7614;BME280;3848;42.016;23.098;2023-06-19T02:26:01;97134.59;;;16.12;100.00
7614;BME280;3848;42.016;23.098;2023-06-19T02:28:28;97128.88;;;16.04;100.00
7614;BME280;3848;42.016;23.098;2023-06-19T02:30:56;97142.28;;;16.12;100.00
7614;BME280;3848;42.016;23.098;2023-06-19T02:33:23;97134.53;;;16.14;100.00
7614;BME280;3848;42.016;23.098;2023-06-19T02:35:50;97136.22;;;16.15;100.00
7614;BME280;3848;42.016;23.098;2023-06-19T02:38:17;97143.84;;;16.16;100.00
7614;BME280;3848;42.016;23.098;2023-06-19T02:40:46;97138.00;;;16.13;100.00
7614;BME280;3848;42.016;23.098;2023-06-19T02:43:13;97131.94;;;16.15;100.00
7614;BME280;3848;42.016;23.098;2023-06-19T02:45:41;97137.00;;;16.17;100.00
7614;BME280;3848;42.016;23.098;2023-06-19T02:48:09;97140.56;;;16.13;100.00
7614;BME280;3848;42.016;23.098;2023-06-19T02:50:36;97141.53;;;16.09;100.00
7614;BME280;3848;42.016;23.098;2023-06-19T02:53:03;97142.56;;;16.03;100.00
7614;BME280;3848;42.016;23.098;2023-06-19T02:55:29;97140.69;;;16.08;100.00
7614;BME280;3848;42.016;23.098;2023-06-19T02:57:56;97156.22;;;16.04;100.00
7614;BME280;3848;42.016;23.098;2023-06-19T03:00:23;97142.72;;;15.97;100.00
7614;BME280;3848;42.016;23.098;2023-06-19T03:02:50;97155.44;;;16.00;100.00
7614;BME280;3848;42.016;23.098;2023-06-19T03:05:18;97155.50;;;15.99;100.00
7614;BME280;3848;42.016;23.098;2023-06-19T03:07:45;97158.84;;;16.01;100.00
7614;BME280;3848;42.016;23.098;2023-06-19T03:10:12;97166.50;;;16.02;100.00
7614;BME280;3848;42.016;23.098;2023-06-19T03:12:38;97169.06;;;16.02;100.00
7614;BME280;3848;42.016;23.098;2023-06-19T03:15:06;97164.06;;;15.98;100.00
7614;BME280;3848;42.016;23.098;2023-06-19T03:17:33;97159.13;;;15.92;100.00
7614;BME280;3848;42.016;23.098;2023-06-19T03:20:00;97162.38;;;15.97;100.00
7614;BME280;3848;42.016;23.098;2023-06-19T03:22:28;97160.53;;;16.02;100.00
7614;BME280;3848;42.016;23.098;2023-06-19T03:24:54;97157.16;;;16.00;100.00
7614;BME280;3848;42.016;23.098;2023-06-19T03:27:21;97162.47;;;15.94;100.00
7614;BME280;3848;42.016;23.098;2023-06-19T03:29:50;97164.25;;;15.92;100.00
7614;BME280;3848;42.016;23.098;2023-06-19T03:32:17;97158.19;;;15.94;100.00
7614;BME280;3848;42.016;23.098;2023-06-19T03:34:44;97155.69;;;15.93;100.00
7614;BME280;3848;42.016;23.098;2023-06-19T03:37:11;97153.91;;;15.95;100.00
7614;BME280;3848;42.016;23.098;2023-06-19T03:39:40;97156.50;;;15.93;100.00
7614;BME280;3848;42.016;23.098;2023-06-19T03:42:07;97156.50;;;15.93;100.00
7614;BME280;3848;42.016;23.098;2023-06-19T03:44:34;97151.47;;;15.90;100.00
7614;BME280;3848;42.016;23.098;2023-06-19T03:47:01;97158.50;;;15.83;100.00
7614;BME280;3848;42.016;23.098;2023-06-19T03:49:28;97159.22;;;15.89;100.00
7614;BME280;3848;42.016;23.098;2023-06-19T03:51:54;97158.19;;;15.94;100.00
7614;BME280;3848;42.016;23.098;2023-06-19T03:54:21;97156.50;;;15.93;100.00
7614;BME280;3848;42.016;23.098;2023-06-19T03:56:49;97164.94;;;15.97;100.00
7614;BME280;3848;42.016;23.098;2023-06-19T03:59:16;97169.97;;;16.00;100.00
7614;BME280;3848;42.016;23.098;2023-06-19T04:01:43;97168.31;;;15.99;100.00
7614;BME280;3848;42.016;23.098;2023-06-19T04:04:10;97174.41;;;15.95;100.00
7614;BME280;3848;42.016;23.098;2023-06-19T04:06:37;97166.78;;;15.93;100.00
7614;BME280;3848;42.016;23.098;2023-06-19T04:09:03;97165.88;;;15.94;100.00
7614;BME280;3848;42.016;23.098;2023-06-19T04:11:31;97169.31;;;15.93;100.00
7614;BME280;3848;42.016;23.098;2023-06-19T04:13:59;97165.84;;;15.96;100.00
7614;BME280;3848;42.016;23.098;2023-06-19T04:16:25;97176.84;;;15.99;100.00
7614;BME280;3848;42.016;23.098;2023-06-19T04:18:52;97167.47;;;15.98;100.00
7614;BME280;3848;42.016;23.098;2023-06-19T04:21:19;97173.13;;;16.09;100.00
7614;BME280;3848;42.016;23.098;2023-06-19T04:23:46;97167.78;;;16.17;100.00
7614;BME280;3848;42.016;23.098;2023-06-19T04:26:12;97175.31;;;16.22;100.00
7614;BME280;3848;42.016;23.098;2023-06-19T04:28:39;97160.03;;;16.19;100.00
7614;BME280;3848;42.016;23.098;2023-06-19T04:31:08;97167.47;;;16.28;100.00
7614;BME280;3848;42.016;23.098;2023-06-19T04:33:35;97170.88;;;16.28;100.00
7614;BME280;3848;42.016;23.098;2023-06-19T04:36:02;97174.28;;;16.29;100.00
7614;BME280;3848;42.016;23.098;2023-06-19T04:38:29;97173.28;;;16.33;100.00
7614;BME280;3848;42.016;23.098;2023-06-19T04:40:55;97168.00;;;16.37;100.00
7614;BME280;3848;42.016;23.098;2023-06-19T04:43:23;97167.69;;;16.48;100.00
7614;BME280;3848;42.016;23.098;2023-06-19T04:45:51;97169.31;;;16.51;100.00
7614;BME280;3848;42.016;23.098;2023-06-19T04:48:19;97171.69;;;16.57;100.00
7614;BME280;3848;42.016;23.098;2023-06-19T04:50:50;97174.06;;;16.63;100.00
7614;BME280;3848;42.016;23.098;2023-06-19T04:53:16;97174.84;;;16.66;100.00
7614;BME280;3848;42.016;23.098;2023-06-19T04:55:43;97175.50;;;16.73;100.00
7614;BME280;3848;42.016;23.098;2023-06-19T04:58:10;97176.13;;;16.80;100.00
7614;BME280;3848;42.016;23.098;2023-06-19T05:00:37;97171.63;;;16.86;100.00
7614;BME280;3848;42.016;23.098;2023-06-19T05:03:04;97175.63;;;16.95;100.00
7614;BME280;3848;42.016;23.098;2023-06-19T05:05:32;97176.25;;;17.01;100.00
7614;BME280;3848;42.016;23.098;2023-06-19T05:07:59;97174.31;;;17.10;100.00
7614;BME280;3848;42.016;23.098;2023-06-19T05:10:26;97170.53;;;17.20;100.00
7614;BME280;3848;42.016;23.098;2023-06-19T05:12:53;97172.94;;;17.24;100.00
7614;BME280;3848;42.016;23.098;2023-06-19T05:15:20;97169.22;;;17.33;100.00
7614;BME280;3848;42.016;23.098;2023-06-19T05:17:47;97176.50;;;17.45;100.00
7614;BME280;3848;42.016;23.098;2023-06-19T05:20:13;97168.66;;;17.50;100.00
7614;BME280;3848;42.016;23.098;2023-06-19T05:22:42;97172.63;;;17.58;100.00
7614;BME280;3848;42.016;23.098;2023-06-19T05:25:09;97173.28;;;17.63;100.00
7614;BME280;3848;42.016;23.098;2023-06-19T05:27:36;97167.88;;;17.73;100.00
7614;BME280;3848;42.016;23.098;2023-06-19T05:30:03;97170.88;;;17.84;100.00
7614;BME280;3848;42.016;23.098;2023-06-19T05:32:30;97175.63;;;17.94;100.00
7614;BME280;3848;42.016;23.098;2023-06-19T05:34:57;97173.56;;;18.04;100.00
7614;BME280;3848;42.016;23.098;2023-06-19T05:37:24;97179.03;;;18.18;100.00
7614;BME280;3848;42.016;23.098;2023-06-19T05:39:53;97177.84;;;18.27;100.00
7614;BME280;3848;42.016;23.098;2023-06-19T05:42:21;97176.72;;;18.34;100.00
7614;BME280;3848;42.016;23.098;2023-06-19T05:44:48;97180.34;;;18.50;100.00
7614;BME280;3848;42.016;23.098;2023-06-19T05:47:15;97186.78;;;18.62;100.00
7614;BME280;3848;42.016;23.098;2023-06-19T05:49:42;97193.19;;;18.74;100.00
7614;BME280;3848;42.016;23.098;2023-06-19T05:52:09;97135.13;;;18.45;100.00
7614;BME280;3848;42.016;23.098;2023-06-19T05:54:36;97173.22;;;18.80;100.00
7614;BME280;3848;42.016;23.098;2023-06-19T05:57:04;97172.69;;;18.93;100.00
7614;BME280;3848;42.016;23.098;2023-06-19T05:59:31;97178.91;;;19.09;100.00
7614;BME280;3848;42.016;23.098;2023-06-19T06:01:58;97179.53;;;19.14;100.00
7614;BME280;3848;42.016;23.098;2023-06-19T06:04:26;97185.03;;;19.27;100.00
7614;BME280;3848;42.016;23.098;2023-06-19T06:06:52;97183.78;;;19.35;100.00
7614;BME280;3848;42.016;23.098;2023-06-19T06:09:19;97194.50;;;19.46;100.00
7614;BME280;3848;42.016;23.098;2023-06-19T06:11:46;97185.88;;;19.47;100.00
7614;BME280;3848;42.016;23.098;2023-06-19T06:14:15;97188.91;;;19.57;100.00
7614;BME280;3848;42.016;23.098;2023-06-19T06:16:42;97192.66;;;19.70;100.00
7614;BME280;3848;42.016;23.098;2023-06-19T06:19:08;97189.63;;;19.81;100.00
7614;BME280;3848;42.016;23.098;2023-06-19T06:21:35;97189.97;;;19.92;100.00
7614;BME280;3848;42.016;23.098;2023-06-19T06:24:02;97181.81;;;20.01;100.00
7614;BME280;3848;42.016;23.098;2023-06-19T06:26:29;97180.00;;;20.03;100.00
7614;BME280;3848;42.016;23.098;2023-06-19T06:28:56;97183.00;;;20.13;100.00
7614;BME280;3848;42.016;23.098;2023-06-19T06:31:24;97185.09;;;20.24;100.00
7614;BME280;3848;42.016;23.098;2023-06-19T06:33:51;97175.09;;;20.35;100.00
7614;BME280;3848;42.016;23.098;2023-06-19T06:36:18;97184.06;;;20.47;100.00
7614;BME280;3848;42.016;23.098;2023-06-19T06:38:45;97190.13;;;20.64;100.00
7614;BME280;3848;42.016;23.098;2023-06-19T06:41:12;97189.38;;;20.80;100.00
7614;BME280;3848;42.016;23.098;2023-06-19T06:43:40;97195.03;;;20.88;100.00
7614;BME280;3848;42.016;23.098;2023-06-19T06:46:08;97190.22;;;20.97;100.00
7614;BME280;3848;42.016;23.098;2023-06-19T06:48:36;97187.81;;;21.12;100.00
7614;BME280;3848;42.016;23.098;2023-06-19T06:51:03;97185.75;;;21.18;100.00
7614;BME280;3848;42.016;23.098;2023-06-19T06:53:30;97193.25;;;21.24;100.00
7614;BME280;3848;42.016;23.098;2023-06-19T06:55:58;97172.09;;;21.16;100.00
7614;BME280;3848;42.016;23.098;2023-06-19T06:58:26;97187.69;;;21.32;100.00
7614;BME280;3848;42.016;23.098;2023-06-19T07:00:52;97190.13;;;21.35;100.00
7614;BME280;3848;42.016;23.098;2023-06-19T07:03:19;97193.31;;;21.40;100.00
7614;BME280;3848;42.016;23.098;2023-06-19T07:05:48;97187.78;;;21.48;100.00
7614;BME280;3848;42.016;23.098;2023-06-19T07:08:15;97185.69;;;21.54;100.00
7614;BME280;3848;42.016;23.098;2023-06-19T07:10:42;97186.44;;;21.56;100.00
7614;BME280;3848;42.016;23.098;2023-06-19T07:13:12;97185.91;;;21.67;100.00
7614;BME280;3848;42.016;23.098;2023-06-19T07:15:38;97191.44;;;21.77;100.00
7614;BME280;3848;42.016;23.098;2023-06-19T07:18:05;97196.06;;;21.87;100.00
7614;BME280;3848;42.016;23.098;2023-06-19T07:20:32;97189.47;;;21.98;100.00
7614;BME280;3848;42.016;23.098;2023-06-19T07:23:00;97188.88;;;22.10;100.00
7614;BME280;3848;42.016;23.098;2023-06-19T07:25:27;97168.25;;;22.08;100.00
7614;BME280;3848;42.016;23.098;2023-06-19T07:27:54;97193.06;;;22.28;100.00
7614;BME280;3848;42.016;23.098;2023-06-19T07:30:21;97176.38;;;22.34;100.00
7614;BME280;3848;42.016;23.098;2023-06-19T07:32:48;97179.84;;;22.48;100.00
7614;BME280;3848;42.016;23.098;2023-06-19T07:35:15;97187.22;;;22.56;100.00
7614;BME280;3848;42.016;23.098;2023-06-19T07:37:41;97173.34;;;22.57;100.00
7614;BME280;3848;42.016;23.098;2023-06-19T07:40:11;97175.22;;;22.69;100.00
7614;BME280;3848;42.016;23.098;2023-06-19T07:42:38;97161.31;;;22.72;100.00
7614;BME280;3848;42.016;23.098;2023-06-19T07:45:06;97175.97;;;23.03;100.00
7614;BME280;3848;42.016;23.098;2023-06-19T07:47:33;97174.44;;;23.15;100.00
7614;BME280;3848;42.016;23.098;2023-06-19T07:49:59;97175.19;;;23.31;100.00
7614;BME280;3848;42.016;23.098;2023-06-19T07:52:26;97160.97;;;23.38;100.00
7614;BME280;3848;42.016;23.098;2023-06-19T07:54:55;97168.59;;;23.55;100.00
7614;BME280;3848;42.016;23.098;2023-06-19T07:57:24;97169.53;;;23.68;100.00
7614;BME280;3848;42.016;23.098;2023-06-19T07:59:53;97178.16;;;23.83;100.00
7614;BME280;3848;42.016;23.098;2023-06-19T08:02:20;97162.69;;;23.96;100.00
7614;BME280;3848;42.016;23.098;2023-06-19T08:04:47;97174.06;;;24.22;100.00
7614;BME280;3848;42.016;23.098;2023-06-19T08:07:14;97168.94;;;24.35;100.00
7614;BME280;3848;42.016;23.098;2023-06-19T08:09:41;97170.03;;;24.59;99.52
7614;BME280;3848;42.016;23.098;2023-06-19T08:12:08;97161.41;;;24.71;98.89
7614;BME280;3848;42.016;23.098;2023-06-19T08:14:36;97171.47;;;24.90;100.00
7614;BME280;3848;42.016;23.098;2023-06-19T08:17:04;97169.97;;;25.00;97.86
7614;BME280;3848;42.016;23.098;2023-06-19T08:19:34;97157.19;;;25.10;100.00
7614;BME280;3848;42.016;23.098;2023-06-19T08:22:01;97163.88;;;25.27;100.00
7614;BME280;3848;42.016;23.098;2023-06-19T08:24:29;97169.31;;;25.49;100.00
7614;BME280;3848;42.016;23.098;2023-06-19T08:26:55;97171.38;;;25.57;96.19
7614;BME280;3848;42.016;23.098;2023-06-19T08:29:22;97163.72;;;25.68;100.00
7614;BME280;3848;42.016;23.098;2023-06-19T08:31:50;97152.78;;;25.88;98.07
7614;BME280;3848;42.016;23.098;2023-06-19T08:34:17;97150.56;;;26.07;91.76
7614;BME280;3848;42.016;23.098;2023-06-19T08:36:44;97148.09;;;26.30;100.00
7614;BME280;3848;42.016;23.098;2023-06-19T08:39:14;97151.81;;;26.51;95.15
7614;BME280;3848;42.016;23.098;2023-06-19T08:41:45;97143.78;;;26.54;84.69
7614;BME280;3848;42.016;23.098;2023-06-19T08:44:13;97143.53;;;26.57;79.63
7614;BME280;3848;42.016;23.098;2023-06-19T08:46:40;97145.69;;;26.63;81.50
7614;BME280;3848;42.016;23.098;2023-06-19T08:49:09;97139.38;;;26.55;85.11
7614;BME280;3848;42.016;23.098;2023-06-19T08:51:36;97138.63;;;26.65;85.13
7614;BME280;3848;42.016;23.098;2023-06-19T08:54:04;97137.22;;;26.72;85.52
7614;BME280;3848;42.016;23.098;2023-06-19T08:56:31;97125.63;;;26.77;93.02
7614;BME280;3848;42.016;23.098;2023-06-19T08:59:08;97135.59;;;27.07;83.05
7614;BME280;3848;42.016;23.098;2023-06-19T09:01:35;97130.06;;;27.22;84.36
7614;BME280;3848;42.016;23.098;2023-06-19T09:04:10;97128.44;;;27.32;74.95
7614;BME280;3848;42.016;23.098;2023-06-19T09:06:46;97128.75;;;27.17;72.33
7614;BME280;3848;42.016;23.098;2023-06-19T09:09:13;97123.56;;;27.28;71.72
7614;BME280;3848;42.016;23.098;2023-06-19T09:11:40;97114.19;;;27.37;78.16
7614;BME280;3848;42.016;23.098;2023-06-19T09:14:09;97116.00;;;27.58;68.91
7614;BME280;3848;42.016;23.098;2023-06-19T09:16:38;97112.72;;;27.79;72.46
7614;BME280;3848;42.016;23.098;2023-06-19T09:19:05;97111.03;;;28.11;70.09
7614;BME280;3848;42.016;23.098;2023-06-19T09:21:37;97110.75;;;28.37;64.71
7614;BME280;3848;42.016;23.098;2023-06-19T09:24:05;97110.97;;;28.45;69.71
7614;BME280;3848;42.016;23.098;2023-06-19T09:26:35;97115.56;;;28.52;69.52
7614;BME280;3848;42.016;23.098;2023-06-19T09:29:12;97098.03;;;28.75;68.17
7614;BME280;3848;42.016;23.098;2023-06-19T09:31:41;97113.94;;;29.04;60.13
7614;BME280;3848;42.016;23.098;2023-06-19T09:34:08;97111.91;;;29.29;63.35
7614;BME280;3848;42.016;23.098;2023-06-19T09:36:35;97093.44;;;29.30;55.45
7614;BME280;3848;42.016;23.098;2023-06-19T09:39:04;97109.47;;;29.37;55.47
7614;BME280;3848;42.016;23.098;2023-06-19T09:41:31;97102.31;;;29.39;57.33
7614;BME280;3848;42.016;23.098;2023-06-19T09:43:59;97098.28;;;29.56;56.94
7614;BME280;3848;42.016;23.098;2023-06-19T09:46:30;97013.78;;;29.23;55.68
7614;BME280;3848;42.016;23.098;2023-06-19T09:49:00;97094.44;;;29.90;53.02
7614;BME280;3848;42.016;23.098;2023-06-19T09:51:31;97087.19;;;30.13;50.33
7614;BME280;3848;42.016;23.098;2023-06-19T09:53:59;96976.72;;;29.58;48.32
7614;BME280;3848;42.016;23.098;2023-06-19T09:56:30;97089.19;;;30.50;51.23
7614;BME280;3848;42.016;23.098;2023-06-19T09:58:59;97086.75;;;30.68;50.77
7614;BME280;3848;42.016;23.098;2023-06-19T10:01:27;97084.25;;;30.66;47.02
7614;BME280;3848;42.016;23.098;2023-06-19T10:04:05;97072.91;;;30.75;47.54
7614;BME280;3848;42.016;23.098;2023-06-19T10:06:32;97071.09;;;31.05;49.02
7614;BME280;3848;42.016;23.098;2023-06-19T10:09:06;97084.38;;;31.03;45.57
7614;BME280;3848;42.016;23.098;2023-06-19T10:11:51;97064.63;;;30.80;42.68
7614;BME280;3848;42.016;23.098;2023-06-19T10:14:19;97067.41;;;30.88;47.23
7614;BME280;3848;42.016;23.098;2023-06-19T10:16:46;97049.44;;;30.83;47.58
7614;BME280;3848;42.016;23.098;2023-06-19T10:19:14;97065.72;;;31.06;48.15
7614;BME280;3848;42.016;23.098;2023-06-19T10:21:45;97067.91;;;31.11;44.13
7614;BME280;3848;42.016;23.098;2023-06-19T10:24:16;97069.28;;;31.15;45.33
7614;BME280;3848;42.016;23.098;2023-06-19T10:26:57;97062.34;;;31.33;43.09
7614;BME280;3848;42.016;23.098;2023-06-19T10:29:24;97062.97;;;31.54;42.70
7614;BME280;3848;42.016;23.098;2023-06-19T10:31:53;97068.84;;;31.76;43.90
7614;BME280;3848;42.016;23.098;2023-06-19T10:34:22;97056.56;;;31.94;45.82
7614;BME280;3848;42.016;23.098;2023-06-19T10:36:49;97060.94;;;32.03;41.23
7614;BME280;3848;42.016;23.098;2023-06-19T10:39:16;97065.16;;;31.96;42.22
7614;BME280;3848;42.016;23.098;2023-06-19T10:41:42;97061.03;;;31.84;40.64
7614;BME280;3848;42.016;23.098;2023-06-19T10:44:11;97060.88;;;31.58;41.25
7614;BME280;3848;42.016;23.098;2023-06-19T10:46:40;97061.09;;;31.65;44.03
7614;BME280;3848;42.016;23.098;2023-06-19T10:49:07;97007.03;;;31.44;42.15
7614;BME280;3848;42.016;23.098;2023-06-19T10:51:37;97038.44;;;31.64;42.85
7614;BME280;3848;42.016;23.098;2023-06-19T10:54:05;97050.03;;;31.71;41.34
7614;BME280;3848;42.016;23.098;2023-06-19T10:56:33;97046.06;;;31.94;43.04
7614;BME280;3848;42.016;23.098;2023-06-19T10:59:01;97040.16;;;32.10;40.57
7614;BME280;3848;42.016;23.098;2023-06-19T11:01:34;97031.34;;;32.01;39.30
7614;BME280;3848;42.016;23.098;2023-06-19T11:04:03;97033.66;;;32.32;41.96
7614;BME280;3848;42.016;23.098;2023-06-19T11:06:31;97029.97;;;32.60;42.99
7614;BME280;3848;42.016;23.098;2023-06-19T11:08:57;97031.97;;;32.66;42.36
7614;BME280;3848;42.016;23.098;2023-06-19T11:11:35;97027.56;;;32.49;39.39
7614;BME280;3848;42.016;23.098;2023-06-19T11:14:02;97040.34;;;32.44;40.88
7614;BME280;3848;42.016;23.098;2023-06-19T11:16:28;97030.16;;;32.67;37.37
7614;BME280;3848;42.016;23.098;2023-06-19T11:19:01;97030.31;;;32.83;39.17
7614;BME280;3848;42.016;23.098;2023-06-19T11:21:31;97034.72;;;33.00;38.23
7614;BME280;3848;42.016;23.098;2023-06-19T11:24:04;97027.47;;;32.94;39.54
7614;BME280;3848;42.016;23.098;2023-06-19T11:26:35;97029.94;;;32.96;39.44
7614;BME280;3848;42.016;23.098;2023-06-19T11:29:02;97026.47;;;32.95;40.29
7614;BME280;3848;42.016;23.098;2023-06-19T11:31:39;97028.25;;;33.13;39.61
7614;BME280;3848;42.016;23.098;2023-06-19T11:34:07;97023.63;;;33.41;39.42
7614;BME280;3848;42.016;23.098;2023-06-19T11:36:37;97023.81;;;33.47;36.66
7614;BME280;3848;42.016;23.098;2023-06-19T11:39:04;97020.53;;;33.45;38.87
7614;BME280;3848;42.016;23.098;2023-06-19T11:41:31;97011.44;;;33.40;36.61
7614;BME280;3848;42.016;23.098;2023-06-19T11:43:59;97021.16;;;33.39;39.18
7614;BME280;3848;42.016;23.098;2023-06-19T11:46:29;97016.75;;;33.48;36.64
7614;BME280;3848;42.016;23.098;2023-06-19T11:48:56;97021.41;;;33.54;38.64
7614;BME280;3848;42.016;23.098;2023-06-19T11:51:34;97022.72;;;33.58;37.73
7614;BME280;3848;42.016;23.098;2023-06-19T11:54:01;97018.88;;;33.52;37.30
7614;BME280;3848;42.016;23.098;2023-06-19T11:56:28;97020.63;;;33.70;37.97
7614;BME280;3848;42.016;23.098;2023-06-19T11:58:55;97017.41;;;33.84;38.50
7614;BME280;3848;42.016;23.098;2023-06-19T12:01:22;97011.50;;;33.98;37.13
7614;BME280;3848;42.016;23.098;2023-06-19T12:03:49;97012.50;;;33.97;36.32
7614;BME280;3848;42.016;23.098;2023-06-19T12:06:16;97013.34;;;34.06;37.85
7614;BME280;3848;42.016;23.098;2023-06-19T12:08:45;97011.34;;;34.08;36.69
7614;BME280;3848;42.016;23.098;2023-06-19T12:11:12;97009.38;;;34.10;35.02
7614;BME280;3848;42.016;23.098;2023-06-19T12:13:40;97005.03;;;33.84;35.42
7614;BME280;3848;42.016;23.098;2023-06-19T12:16:07;96995.97;;;33.87;36.71
7614;BME280;3848;42.016;23.098;2023-06-19T12:18:34;96997.19;;;34.01;36.53
7614;BME280;3848;42.016;23.098;2023-06-19T12:21:01;97001.34;;;34.19;39.16
7614;BME280;3848;42.016;23.098;2023-06-19T12:23:27;96988.78;;;34.30;36.50
7614;BME280;3848;42.016;23.098;2023-06-19T12:25:56;96984.56;;;34.45;36.37
7614;BME280;3848;42.016;23.098;2023-06-19T12:28:23;96987.84;;;34.47;37.85
7614;BME280;3848;42.016;23.098;2023-06-19T12:30:51;96984.22;;;34.48;38.15
7614;BME280;3848;42.016;23.098;2023-06-19T12:33:18;96989.66;;;34.38;36.76
7614;BME280;3848;42.016;23.098;2023-06-19T12:35:46;96981.75;;;34.38;35.19
7614;BME280;3848;42.016;23.098;2023-06-19T12:38:13;96986.34;;;34.52;36.32
7614;BME280;3848;42.016;23.098;2023-06-19T12:40:40;96977.09;;;34.57;35.87
7614;BME280;3848;42.016;23.098;2023-06-19T12:43:09;96972.50;;;34.59;36.02
7614;BME280;3848;42.016;23.098;2023-06-19T12:45:35;96979.09;;;34.54;36.55
7614;BME280;3848;42.016;23.098;2023-06-19T12:48:02;97003.84;;;34.70;36.75
7614;BME280;3848;42.016;23.098;2023-06-19T12:50:29;96986.38;;;34.36;35.66
7614;BME280;3848;42.016;23.098;2023-06-19T12:52:56;96992.25;;;34.30;34.91
7614;BME280;3848;42.016;23.098;2023-06-19T12:55:26;96989.94;;;34.03;34.34
7614;BME280;3848;42.016;23.098;2023-06-19T12:57:53;96995.00;;;33.88;35.25
7614;BME280;3848;42.016;23.098;2023-06-19T13:00:21;96983.63;;;33.87;36.14
7614;BME280;3848;42.016;23.098;2023-06-19T13:02:48;96982.97;;;33.85;36.21
7614;BME280;3848;42.016;23.098;2023-06-19T13:05:14;96989.63;;;34.22;35.28
7614;BME280;3848;42.016;23.098;2023-06-19T13:07:41;96979.56;;;34.25;34.88